world map with OHS marked

OHS - Airport

This information may not be accurate or current and is not valid for navigation or flight planning. No warranty of fitness for any purpose is made or implied.

flag of Oman

Donate via PayPal

Additional information is available on the NEW Great Circle Mapper

Location
City:  Sohar, Oman
Near (Alt.):Majis
ICAO / IATA:OOSH / OHS

Details
Type:Airport (Aerodrome, Airfield)
Latitude:24°23'10"N (24.386167)
Longitude:56°37'32"E (56.625667)
Elevation:105 ft (32 m)
Runways:1
Longest:13100 ft (3993 m)

Time
Timezone:UTC+4 (DST+6)
Local Time:

Weather
METAR:OOSH  041350Z AUTO 27010KT //// 26/14 Q1016 RMK 1012
TAF:OOSH  041100Z 0412/0518 24010KT 8000 SCT025 PROB30 TEMPO 0412/0416 TSRA FEW025CB BKN030 PROB30 TEMPO 0500/0504 BKN030 BECMG 0506/0508 06012KT

Related Locations
Nearby:
Farthest:GMR: 11713 mi / 18850 km
Mangareva [Totegegie], Gambier Islands, PF

Find:

   beyond  
but within

Other Information
Maps:
Sources:

  


 


Great Circle Mapper   Great Circle Mapper
Great Circle Mapper FAQ   Great Circle Mapper FAQ
  Karl's Home Page
KLSē   KLSē Home
   GC on Facebook
Airlines of the World   Airlines of the World
Donate via PayPal


Copyright © 2004-2019, Karl L. Swartz. All rights reserved.
All trademarks mentioned herein belong to their respective owners.

Please see credits for attribution and copyright information.

Karl Swartz <karl@kls2.com>
  Powered by FreeBSD
Valid HTML 4.01!
Labeled with ICRA
hCard Microformat
Geo Microformat